createdAt,value
2017-02-13T00:00:58.956Z,1003.23
2017-02-13T00:01:58.981Z,1003.18
2017-02-13T00:02:59.006Z,1003.19
2017-02-13T00:03:59.052Z,1003.26
2017-02-13T00:04:59.062Z,1003.26
2017-02-13T00:05:59.101Z,1003.25
2017-02-13T00:06:59.112Z,1003.23
2017-02-13T00:07:59.169Z,1003.26
2017-02-13T00:08:59.167Z,1003.23
2017-02-13T00:09:59.210Z,1003.3
2017-02-13T00:10:59.216Z,1003.29
2017-02-13T00:11:59.273Z,1003.34
2017-02-13T00:12:59.274Z,1003.3
2017-02-13T00:13:59.321Z,1003.36
2017-02-13T00:14:59.323Z,1003.28
2017-02-13T00:15:59.369Z,1003.32
2017-02-13T00:16:59.376Z,1003.37
2017-02-13T00:17:59.418Z,1003.33
2017-02-13T00:18:59.430Z,1003.34
2017-02-13T00:19:59.450Z,1003.28
2017-02-13T00:20:59.482Z,1003.37
2017-02-13T00:21:59.507Z,1003.3
2017-02-13T00:22:59.538Z,1003.32
2017-02-13T00:23:59.576Z,1003.33
2017-02-13T00:24:59.589Z,1003.3
2017-02-13T00:25:59.615Z,1003.35
2017-02-13T00:26:59.643Z,1003.33
2017-02-13T00:27:59.668Z,1003.27
2017-02-13T00:28:59.692Z,1003.34
2017-02-13T00:29:59.721Z,1003.33
2017-02-13T00:30:59.747Z,1003.34
2017-02-13T00:31:59.791Z,1003.27
2017-02-13T00:33:00.054Z,1003.28
2017-02-13T00:33:59.835Z,1003.3
2017-02-13T00:34:59.852Z,1003.24
2017-02-13T00:35:59.879Z,1003.26
2017-02-13T00:36:59.907Z,1003.32
2017-02-13T00:38:00.183Z,1003.3
2017-02-13T00:38:59.957Z,1003.33
2017-02-13T00:39:59.982Z,1003.29
2017-02-13T00:41:00.010Z,1003.3
2017-02-13T00:42:00.065Z,1003.32
2017-02-13T00:43:00.064Z,1003.33
2017-02-13T00:44:00.108Z,1003.34
2017-02-13T00:45:00.118Z,1003.38
2017-02-13T00:46:00.158Z,1003.37
2017-02-13T00:47:00.166Z,1003.36
2017-02-13T00:48:00.214Z,1003.38
2017-02-13T00:49:00.219Z,1003.37
2017-02-13T00:50:00.254Z,1003.42
2017-02-13T00:51:00.273Z,1003.4
2017-02-13T00:52:00.326Z,1003.42
2017-02-13T00:53:00.322Z,1003.44
2017-02-13T00:54:00.382Z,1003.45
2017-02-13T00:55:00.380Z,1003.48
2017-02-13T00:56:00.402Z,1003.42
2017-02-13T00:57:00.430Z,1003.44
2017-02-13T00:58:00.477Z,1003.46
2017-02-13T00:59:00.483Z,1003.49
2017-02-13T01:00:00.512Z,1003.44
2017-02-13T01:01:00.541Z,1003.46
2017-02-13T01:02:00.579Z,1003.44
2017-02-13T01:03:00.591Z,1003.52
2017-02-13T01:04:00.867Z,1003.49
2017-02-13T01:05:00.646Z,1003.49
2017-02-13T01:06:00.669Z,1003.52
2017-02-13T01:07:00.694Z,1003.56
2017-02-13T01:08:00.731Z,1003.5
2017-02-13T01:09:00.997Z,1003.57
2017-02-13T01:10:00.805Z,1003.49
2017-02-13T01:11:00.800Z,1003.5
2017-02-13T01:12:00.822Z,1003.49
2017-02-13T01:13:00.854Z,1003.57
2017-02-13T01:14:01.131Z,1003.46
2017-02-13T01:15:00.903Z,1003.55
2017-02-13T01:16:00.932Z,1003.57
2017-02-13T01:17:00.957Z,1003.54
2017-02-13T01:18:00.986Z,1003.6
2017-02-13T01:19:01.262Z,1003.61
2017-02-13T01:20:01.034Z,1003.54
2017-02-13T01:21:01.064Z,1003.54
2017-02-13T01:22:01.089Z,1003.55
2017-02-13T01:23:01.113Z,1003.54
2017-02-13T01:24:01.143Z,1003.5
2017-02-13T01:25:01.168Z,1003.53
2017-02-13T01:26:01.191Z,1003.49
2017-02-13T01:27:01.222Z,1003.44
2017-02-13T01:28:01.247Z,1003.44
2017-02-13T01:29:01.275Z,1003.47
2017-02-13T01:30:01.298Z,1003.45
2017-02-13T01:31:01.324Z,1003.42
2017-02-13T01:32:01.351Z,1003.42
2017-02-13T01:33:01.376Z,1003.44
2017-02-13T01:34:01.406Z,1003.45
2017-02-13T01:35:01.430Z,1003.46
2017-02-13T01:36:01.459Z,1003.44
2017-02-13T01:37:01.484Z,1003.42
2017-02-13T01:38:01.509Z,1003.35
2017-02-13T01:39:01.541Z,1003.34
2017-02-13T01:40:01.574Z,1003.41
2017-02-13T01:41:01.587Z,1003.36
2017-02-13T01:42:01.615Z,1003.36
2017-02-13T01:43:01.640Z,1003.37
2017-02-13T01:44:01.661Z,1003.43
2017-02-13T01:45:01.694Z,1003.36
2017-02-13T01:46:01.718Z,1003.39
2017-02-13T01:47:01.748Z,1003.35
2017-02-13T01:48:01.773Z,1003.38
2017-02-13T01:49:01.793Z,1003.37
2017-02-13T01:50:01.825Z,1003.33
2017-02-13T01:51:01.850Z,1003.38
2017-02-13T01:52:01.904Z,1003.36
2017-02-13T01:53:01.903Z,1003.36
2017-02-13T01:54:01.933Z,1003.36
2017-02-13T01:55:01.956Z,1003.4
2017-02-13T01:56:02.001Z,1003.36
2017-02-13T01:57:02.007Z,1003.37
2017-02-13T01:58:02.045Z,1003.36
2017-02-13T01:59:02.060Z,1003.37
2017-02-13T02:00:02.120Z,1003.38
2017-02-13T02:01:02.113Z,1003.34
2017-02-13T02:02:02.156Z,1003.33
2017-02-13T02:03:02.162Z,1003.39
2017-02-13T02:04:02.211Z,1003.33
2017-02-13T02:05:02.219Z,1003.35
2017-02-13T02:06:02.258Z,1003.37
2017-02-13T02:07:02.269Z,1003.35
2017-02-13T02:08:02.312Z,1003.34
2017-02-13T02:09:02.323Z,1003.41
2017-02-13T02:10:02.349Z,1003.35
2017-02-13T02:11:02.371Z,1003.39
2017-02-13T02:12:02.402Z,1003.36
2017-02-13T02:13:02.425Z,1003.36
2017-02-13T02:14:02.476Z,1003.36
2017-02-13T02:15:02.725Z,1003.33
2017-02-13T02:16:02.515Z,1003.34
2017-02-13T02:17:02.526Z,1003.35
2017-02-13T02:18:02.557Z,1003.31
2017-02-13T02:19:02.585Z,1003.29
2017-02-13T02:20:02.862Z,1003.35
2017-02-13T02:21:02.636Z,1003.32
2017-02-13T02:22:02.680Z,1003.36
2017-02-13T02:23:02.687Z,1003.27
2017-02-13T02:24:02.713Z,1003.31
2017-02-13T02:25:02.988Z,1003.28
2017-02-13T02:26:02.766Z,1003.27
2017-02-13T02:27:02.792Z,1003.29
2017-02-13T02:28:02.835Z,1003.27
2017-02-13T02:29:02.844Z,1003.28
2017-02-13T02:30:03.120Z,1003.27
2017-02-13T02:31:02.898Z,1003.26
2017-02-13T02:32:02.923Z,1003.21
2017-02-13T02:33:02.947Z,1003.25
2017-02-13T02:34:03.001Z,1003.23
2017-02-13T02:35:03.003Z,1003.15
2017-02-13T02:36:03.039Z,1003.23
2017-02-13T02:37:03.056Z,1003.22
2017-02-13T02:38:03.093Z,1003.21
2017-02-13T02:39:03.104Z,1003.15
2017-02-13T02:40:03.133Z,1003.16
2017-02-13T02:41:03.157Z,1003.15
2017-02-13T02:42:03.182Z,1003.17
2017-02-13T02:43:03.214Z,1003.19
2017-02-13T02:44:03.246Z,1003.17
2017-02-13T02:45:03.261Z,1003.19
2017-02-13T02:46:03.312Z,1003.16
2017-02-13T02:47:03.315Z,1003.19
2017-02-13T02:48:03.351Z,1003.24
2017-02-13T02:49:03.368Z,1003.22
2017-02-13T02:50:03.403Z,1003.22
2017-02-13T02:51:03.417Z,1003.23
2017-02-13T02:52:03.446Z,1003.27
2017-02-13T02:53:03.473Z,1003.27
2017-02-13T02:54:03.500Z,1003.25
2017-02-13T02:55:03.525Z,1003.27
2017-02-13T02:56:03.568Z,1003.28
2017-02-13T02:57:03.576Z,1003.3
2017-02-13T02:58:03.604Z,1003.24
2017-02-13T02:59:03.627Z,1003.23
2017-02-13T03:00:03.669Z,1003.22
2017-02-13T03:01:03.681Z,1003.21
2017-02-13T03:02:03.729Z,1003.18
2017-02-13T03:03:03.734Z,1003.19
2017-02-13T03:04:03.776Z,1003.22
2017-02-13T03:05:03.779Z,1003.25
2017-02-13T03:06:04.066Z,1003.29
2017-02-13T03:07:03.837Z,1003.26
2017-02-13T03:08:03.879Z,1003.27
2017-02-13T03:09:03.891Z,1003.27
2017-02-13T03:10:03.922Z,1003.3
2017-02-13T03:11:04.195Z,1003.28
2017-02-13T03:12:03.984Z,1003.3
2017-02-13T03:13:03.999Z,1003.27
2017-02-13T03:14:04.027Z,1003.3
2017-02-13T03:15:04.047Z,1003.27
2017-02-13T03:16:04.073Z,1003.29
2017-02-13T03:17:04.100Z,1003.26
2017-02-13T03:18:04.125Z,1003.27
2017-02-13T03:19:04.150Z,1003.24
2017-02-13T03:20:04.178Z,1003.27
2017-02-13T03:21:04.204Z,1003.23
2017-02-13T03:22:04.228Z,1003.2
2017-02-13T03:23:04.253Z,1003.17
2017-02-13T03:24:04.278Z,1003.12
2017-02-13T03:25:04.306Z,1003.09
2017-02-13T03:26:04.352Z,1003.16
2017-02-13T03:27:04.360Z,1003.09
2017-02-13T03:28:04.402Z,1003.13
2017-02-13T03:29:04.414Z,1003.13
2017-02-13T03:30:04.438Z,1003.07
2017-02-13T03:31:04.463Z,1003.05
2017-02-13T03:32:04.742Z,1003.1
2017-02-13T03:33:04.517Z,1003.08
2017-02-13T03:34:04.554Z,1003
2017-02-13T03:35:04.569Z,1002.97
2017-02-13T03:36:04.612Z,1002.96
2017-02-13T03:37:04.872Z,1002.97
2017-02-13T03:38:04.658Z,1002.93
2017-02-13T03:39:04.672Z,1002.92
2017-02-13T03:40:04.716Z,1002.87
2017-02-13T03:41:04.722Z,1002.9
2017-02-13T03:42:05.002Z,1002.82
2017-02-13T03:43:04.777Z,1002.88
2017-02-13T03:44:04.827Z,1002.86
2017-02-13T03:45:04.829Z,1002.97
2017-02-13T03:46:04.854Z,1002.9
2017-02-13T03:47:04.884Z,1002.91
2017-02-13T03:48:04.908Z,1003
2017-02-13T03:49:04.932Z,1003.03
2017-02-13T03:50:04.966Z,1003.01
2017-02-13T03:51:04.990Z,1003.07
2017-02-13T03:52:05.011Z,1003.01
2017-02-13T03:53:05.034Z,1003.04
2017-02-13T03:54:05.060Z,1003.05
2017-02-13T03:55:05.089Z,1003.06
2017-02-13T03:56:05.114Z,1003.06
2017-02-13T03:57:05.141Z,1003.03
2017-02-13T03:58:05.166Z,1003.05
2017-02-13T03:59:05.196Z,1003.08
2017-02-13T04:00:05.219Z,1003.07
2017-02-13T04:01:05.427Z,1003.08
2017-02-13T04:02:05.291Z,1003.11
2017-02-13T04:03:05.296Z,1003.04
2017-02-13T04:04:05.319Z,1003.07
2017-02-13T04:05:05.349Z,1003.08
2017-02-13T04:06:05.400Z,1003.1
2017-02-13T04:07:05.401Z,1003.04
2017-02-13T04:08:05.473Z,1003.06
2017-02-13T04:09:05.454Z,1003.08
2017-02-13T04:10:05.493Z,1003.1
2017-02-13T04:11:05.505Z,1003.07
2017-02-13T04:12:05.552Z,1003.01
2017-02-13T04:13:05.558Z,1003.02
2017-02-13T04:14:05.584Z,1003
2017-02-13T04:15:05.611Z,1003.02
2017-02-13T04:16:05.641Z,1002.99
2017-02-13T04:17:05.661Z,1003.04
2017-02-13T04:18:05.686Z,1003.01
2017-02-13T04:19:05.711Z,1003.08
2017-02-13T04:20:05.739Z,1003.04
2017-02-13T04:21:05.767Z,1003.06
2017-02-13T04:22:05.811Z,1003.09
2017-02-13T04:23:06.069Z,1003.11
2017-02-13T04:24:05.846Z,1003.16
2017-02-13T04:25:05.871Z,1003.15
2017-02-13T04:26:05.898Z,1003.23
2017-02-13T04:27:05.920Z,1003.26
2017-02-13T04:28:06.201Z,1003.21
2017-02-13T04:29:05.972Z,1003.21
2017-02-13T04:30:05.998Z,1003.24
2017-02-13T04:31:06.027Z,1003.22
2017-02-13T04:32:06.081Z,1003.21
2017-02-13T04:33:06.099Z,1003.25
2017-02-13T04:34:06.123Z,1003.25
2017-02-13T04:35:06.149Z,1003.25
2017-02-13T04:36:06.153Z,1003.26
2017-02-13T04:37:06.175Z,1003.22
2017-02-13T04:38:06.206Z,1003.23
2017-02-13T04:39:06.233Z,1003.18
2017-02-13T04:40:06.280Z,1003.14
2017-02-13T04:41:06.284Z,1003.13
2017-02-13T04:42:06.332Z,1003.1
2017-02-13T04:43:06.340Z,1003.07
2017-02-13T04:44:06.383Z,1003.07
2017-02-13T04:45:06.389Z,1003.1
2017-02-13T04:46:06.436Z,1003.05
2017-02-13T04:47:06.443Z,1003.05
2017-02-13T04:48:06.468Z,1003.09
2017-02-13T04:49:06.491Z,1003.09
2017-02-13T04:50:06.521Z,1003.1
2017-02-13T04:51:06.546Z,1003.12
2017-02-13T04:52:06.572Z,1003.09
2017-02-13T04:53:06.600Z,1003.06
2017-02-13T04:54:06.624Z,1003.1
2017-02-13T04:55:06.648Z,1003.08
2017-02-13T04:56:06.695Z,1003.1
2017-02-13T04:57:06.702Z,1003.15
2017-02-13T04:58:06.727Z,1003.17
2017-02-13T04:59:06.752Z,1003.2
2017-02-13T05:00:06.782Z,1003.12
2017-02-13T05:01:06.805Z,1003.13
2017-02-13T05:02:06.829Z,1003.17
2017-02-13T05:03:06.858Z,1003.21
2017-02-13T05:04:06.883Z,1003.18
2017-02-13T05:05:06.908Z,1003.18
2017-02-13T05:06:06.948Z,1003.12
2017-02-13T05:07:06.972Z,1003.11
2017-02-13T05:08:07.014Z,1003.23
2017-02-13T05:09:07.009Z,1003.16
2017-02-13T05:10:07.057Z,1003.17
2017-02-13T05:11:07.065Z,1003.2
2017-02-13T05:12:07.108Z,1003.18
2017-02-13T05:13:07.123Z,1003.18
2017-02-13T05:14:07.159Z,1003.18
2017-02-13T05:15:07.167Z,1003.22
2017-02-13T05:16:07.209Z,1003.21
2017-02-13T05:17:07.220Z,1003.2
2017-02-13T05:18:07.268Z,1003.15
2017-02-13T05:19:07.270Z,1003.14
2017-02-13T05:20:07.317Z,1003.15
2017-02-13T05:21:07.324Z,1003.16
2017-02-13T05:22:07.363Z,1003.11
2017-02-13T05:23:07.376Z,1003.09
2017-02-13T05:24:07.410Z,1003.14
2017-02-13T05:25:07.427Z,1003.12
2017-02-13T05:26:07.447Z,1003.1
2017-02-13T05:27:07.479Z,1003.09
2017-02-13T05:28:07.504Z,1003.1
2017-02-13T05:29:07.777Z,1003.1
2017-02-13T05:30:07.556Z,1003.09
2017-02-13T05:31:07.579Z,1003.08
2017-02-13T05:32:07.606Z,1003.08
2017-02-13T05:33:07.631Z,1003.05
2017-02-13T05:34:07.912Z,1003.04
2017-02-13T05:35:07.686Z,1003.05
2017-02-13T05:36:07.711Z,1003.07
2017-02-13T05:37:07.739Z,1003.02
2017-02-13T05:38:07.760Z,1002.99
2017-02-13T05:39:08.036Z,1003.06
2017-02-13T05:40:07.824Z,1003.05
2017-02-13T05:41:07.843Z,1002.98
2017-02-13T05:42:07.860Z,1002.98
2017-02-13T05:43:07.891Z,1003.01
2017-02-13T05:44:08.172Z,1003.02
2017-02-13T05:45:07.944Z,1002.99
2017-02-13T05:46:07.968Z,1002.97
2017-02-13T05:47:07.998Z,1003.02
2017-02-13T05:48:08.047Z,1002.98
2017-02-13T05:49:08.046Z,1003
2017-02-13T05:50:08.091Z,1003.02
2017-02-13T05:51:08.100Z,1003
2017-02-13T05:52:08.127Z,1003.05
2017-02-13T05:53:08.150Z,1003.02
2017-02-13T05:54:08.411Z,1003.08
2017-02-13T05:55:08.848Z,1003.05
2017-02-13T05:56:08.229Z,1003.03
2017-02-13T05:57:08.252Z,1003.05
2017-02-13T05:58:08.282Z,1003.1
2017-02-13T05:59:08.307Z,1003.14
2017-02-13T06:00:08.335Z,1003.09
2017-02-13T06:01:08.361Z,1003.12
2017-02-13T06:02:08.384Z,1003.09
2017-02-13T06:03:08.414Z,1003.05
2017-02-13T06:04:08.435Z,1003.05
2017-02-13T06:05:08.459Z,1003.04
2017-02-13T06:06:08.493Z,1003.08
2017-02-13T06:07:08.513Z,1003.04
2017-02-13T06:08:08.541Z,1003.08
2017-02-13T06:09:08.566Z,1003.02
2017-02-13T06:10:08.846Z,1003.03
2017-02-13T06:11:08.620Z,1003.09
2017-02-13T06:12:08.649Z,1003.11
2017-02-13T06:13:08.675Z,1003.11
2017-02-13T06:14:08.699Z,1003.15
2017-02-13T06:15:08.979Z,1003.09
2017-02-13T06:16:08.751Z,1003.1
2017-02-13T06:17:08.776Z,1003.16
2017-02-13T06:18:08.806Z,1003.24
2017-02-13T06:19:08.830Z,1003.18
2017-02-13T06:20:08.861Z,1003.19
2017-02-13T06:21:08.883Z,1003.16
2017-02-13T06:22:08.907Z,1003.21
2017-02-13T06:23:08.937Z,1003.16
2017-02-13T06:24:08.962Z,1003.14
2017-02-13T06:25:08.991Z,1003.13
2017-02-13T06:26:09.016Z,1003.19
2017-02-13T06:27:09.039Z,1003.18
2017-02-13T06:28:09.069Z,1003.14
2017-02-13T06:29:09.092Z,1003.13
2017-02-13T06:30:09.119Z,1003.14
2017-02-13T06:31:09.147Z,1003.1
2017-02-13T06:32:09.172Z,1003.09
2017-02-13T06:33:09.196Z,1003.08
2017-02-13T06:34:09.227Z,1003.1
2017-02-13T06:35:09.251Z,1003.02
2017-02-13T06:36:09.280Z,1003.02
2017-02-13T06:37:09.304Z,1003.01
2017-02-13T06:38:09.328Z,1003.05
2017-02-13T06:39:09.356Z,1002.98
2017-02-13T06:40:09.380Z,1003.02
2017-02-13T06:41:09.406Z,1002.94
2017-02-13T06:42:09.434Z,1002.98
2017-02-13T06:43:09.461Z,1002.93
2017-02-13T06:44:09.485Z,1002.97
2017-02-13T06:45:09.514Z,1002.96
2017-02-13T06:46:09.537Z,1002.97
2017-02-13T06:47:09.562Z,1003.08
2017-02-13T06:48:09.593Z,1003.06
2017-02-13T06:49:09.617Z,1003.06
2017-02-13T06:50:09.645Z,1003.05
2017-02-13T06:51:09.669Z,1003.05
2017-02-13T06:52:09.694Z,1003.08
2017-02-13T06:53:09.723Z,1003.03
2017-02-13T06:54:09.749Z,1003.05
2017-02-13T06:55:09.777Z,1003.02
2017-02-13T06:56:10.058Z,1003.01
2017-02-13T06:57:09.826Z,1003.08
2017-02-13T06:58:09.856Z,1003.07
2017-02-13T06:59:09.879Z,1003.06
2017-02-13T07:00:09.908Z,1003.05
2017-02-13T07:01:10.184Z,1003.07
2017-02-13T07:02:09.961Z,1003.09
2017-02-13T07:03:09.983Z,1003.05
2017-02-13T07:04:10.012Z,1003.09
2017-02-13T07:05:10.040Z,1003.07
2017-02-13T07:06:10.313Z,1003.13
2017-02-13T07:07:10.090Z,1003.15
2017-02-13T07:08:10.119Z,1003.18
2017-02-13T07:09:10.143Z,1003.15
2017-02-13T07:10:10.168Z,1003.17
2017-02-13T07:11:10.197Z,1003.23
2017-02-13T07:12:10.223Z,1003.2
2017-02-13T07:13:10.252Z,1003.21
2017-02-13T07:14:10.275Z,1003.25
2017-02-13T07:15:10.305Z,1003.25
2017-02-13T07:16:10.330Z,1003.22
2017-02-13T07:17:10.352Z,1003.25
2017-02-13T07:18:10.379Z,1003.18
2017-02-13T07:19:10.407Z,1003.23
2017-02-13T07:20:10.436Z,1003.23
2017-02-13T07:21:10.461Z,1003.18
2017-02-13T07:22:10.480Z,1003.19
2017-02-13T07:23:10.512Z,1003.17
2017-02-13T07:24:10.540Z,1003.2
2017-02-13T07:25:10.567Z,1003.16
2017-02-13T07:26:10.592Z,1003.21
2017-02-13T07:27:10.612Z,1003.19
2017-02-13T07:28:10.664Z,1003.21
2017-02-13T07:29:10.670Z,1003.24
2017-02-13T07:30:10.700Z,1003.21
2017-02-13T07:31:10.724Z,1003.2
2017-02-13T07:32:10.749Z,1003.21
2017-02-13T07:33:10.780Z,1003.2
2017-02-13T07:34:10.803Z,1003.12
2017-02-13T07:35:10.826Z,1003.17
2017-02-13T07:36:10.854Z,1003.23
2017-02-13T07:37:10.880Z,1003.2
2017-02-13T07:38:10.907Z,1003.19
2017-02-13T07:39:10.933Z,1003.15
2017-02-13T07:40:10.959Z,1003.24
2017-02-13T07:41:10.987Z,1003.24
2017-02-13T07:42:11.267Z,1003.26
2017-02-13T07:43:11.041Z,1003.25
2017-02-13T07:44:11.065Z,1003.25
2017-02-13T07:45:11.095Z,1003.19
2017-02-13T07:46:11.118Z,1003.27
2017-02-13T07:47:11.148Z,1003.28
2017-02-13T07:48:11.174Z,1003.34
2017-02-13T07:49:11.200Z,1003.38
2017-02-13T07:50:11.225Z,1003.29
2017-02-13T07:51:11.246Z,1003.26
2017-02-13T07:52:11.280Z,1003.35
2017-02-13T07:53:11.304Z,1003.33
2017-02-13T07:54:11.333Z,1003.37
2017-02-13T07:55:11.356Z,1003.4
2017-02-13T07:56:11.382Z,1003.38
2017-02-13T07:57:11.410Z,1003.38
2017-02-13T07:58:11.435Z,1003.36
2017-02-13T07:59:11.464Z,1003.41
2017-02-13T08:00:11.489Z,1003.42
2017-02-13T08:01:11.514Z,1003.44
2017-02-13T08:02:11.543Z,1003.45
2017-02-13T08:03:11.568Z,1003.54
2017-02-13T08:04:11.596Z,1003.55
2017-02-13T08:05:11.621Z,1003.5
2017-02-13T08:06:11.650Z,1003.54
2017-02-13T08:07:11.670Z,1003.52
2017-02-13T08:08:11.698Z,1003.5
2017-02-13T08:09:11.728Z,1003.45
2017-02-13T08:10:11.752Z,1003.51
2017-02-13T08:11:11.781Z,1003.48
2017-02-13T08:12:11.805Z,1003.49
2017-02-13T08:13:12.086Z,1003.49
2017-02-13T08:14:11.859Z,1003.45
2017-02-13T08:15:11.883Z,1003.46
2017-02-13T08:16:11.907Z,1003.43
2017-02-13T08:17:11.939Z,1003.48
2017-02-13T08:18:12.213Z,1003.46
2017-02-13T08:19:11.987Z,1003.45
2017-02-13T08:20:12.016Z,1003.38
2017-02-13T08:21:12.050Z,1003.42
2017-02-13T08:22:12.069Z,1003.41
2017-02-13T08:23:12.344Z,1003.42
2017-02-13T08:24:12.124Z,1003.48
2017-02-13T08:25:12.147Z,1003.47
2017-02-13T08:26:12.172Z,1003.47
2017-02-13T08:27:12.201Z,1003.47
2017-02-13T08:28:12.220Z,1003.47
2017-02-13T08:29:12.254Z,1003.45
2017-02-13T08:30:12.283Z,1003.43
2017-02-13T08:31:12.303Z,1003.45
2017-02-13T08:32:12.337Z,1003.43
2017-02-13T08:33:12.357Z,1003.4
2017-02-13T08:34:12.382Z,1003.41
2017-02-13T08:35:12.410Z,1003.38
2017-02-13T08:36:12.436Z,1003.36
2017-02-13T08:37:12.465Z,1003.35
2017-02-13T08:38:12.490Z,1003.36
2017-02-13T08:39:12.513Z,1003.35
2017-02-13T08:40:12.542Z,1003.4
2017-02-13T08:41:12.563Z,1003.38
2017-02-13T08:42:12.593Z,1003.33
2017-02-13T08:43:12.619Z,1003.47
2017-02-13T08:44:12.647Z,1003.32
2017-02-13T08:45:12.675Z,1003.45
2017-02-13T08:46:12.698Z,1003.49
2017-02-13T08:47:12.726Z,1003.46
2017-02-13T08:48:12.753Z,1003.46
2017-02-13T08:49:12.779Z,1003.43
2017-02-13T08:50:12.807Z,1003.54
2017-02-13T08:51:12.831Z,1003.54
2017-02-13T08:52:12.856Z,1003.47
2017-02-13T08:53:12.882Z,1003.51
2017-02-13T08:54:12.913Z,1003.52
2017-02-13T08:55:12.935Z,1003.45
2017-02-13T08:56:12.962Z,1003.46
2017-02-13T08:57:12.986Z,1003.5
2017-02-13T08:58:13.015Z,1003.44
2017-02-13T08:59:13.042Z,1003.45
2017-02-13T09:00:13.064Z,1003.45
2017-02-13T09:01:13.094Z,1003.42
2017-02-13T09:02:13.123Z,1003.44
2017-02-13T09:03:13.152Z,1003.44
2017-02-13T09:04:13.172Z,1003.43
2017-02-13T09:05:13.196Z,1003.44
2017-02-13T09:06:13.225Z,1003.39
2017-02-13T09:07:13.247Z,1003.46
2017-02-13T09:08:13.281Z,1003.47
2017-02-13T09:09:13.303Z,1003.46
2017-02-13T09:10:13.328Z,1003.51
2017-02-13T09:11:13.358Z,1003.52
2017-02-13T09:12:13.382Z,1003.42
2017-02-13T09:13:13.416Z,1003.47
2017-02-13T09:14:13.436Z,1003.48
2017-02-13T09:15:13.461Z,1003.47
2017-02-13T09:16:13.485Z,1003.48
2017-02-13T09:17:13.511Z,1003.49
2017-02-13T09:18:13.539Z,1003.47
2017-02-13T09:19:13.572Z,1003.44
2017-02-13T09:20:13.592Z,1003.51
2017-02-13T09:21:13.615Z,1003.56
2017-02-13T09:22:13.646Z,1003.57
2017-02-13T09:23:13.671Z,1003.56
2017-02-13T09:24:13.700Z,1003.58
2017-02-13T09:25:13.721Z,1003.51
2017-02-13T09:26:13.750Z,1003.48
2017-02-13T09:27:13.777Z,1003.52
2017-02-13T09:28:13.802Z,1003.55
2017-02-13T09:29:14.087Z,1003.52
2017-02-13T09:30:13.857Z,1003.65
2017-02-13T09:31:13.882Z,1003.49
2017-02-13T09:32:13.909Z,1003.56
2017-02-13T09:33:13.935Z,1003.61
2017-02-13T09:34:14.210Z,1003.6
2017-02-13T09:35:13.988Z,1003.66
2017-02-13T09:36:14.012Z,1003.58
2017-02-13T09:37:14.040Z,1003.63
2017-02-13T09:38:14.061Z,1003.69
2017-02-13T09:39:14.341Z,1003.58
2017-02-13T09:40:14.119Z,1003.67
2017-02-13T09:41:14.143Z,1003.69
2017-02-13T09:42:14.173Z,1003.67
2017-02-13T09:43:14.198Z,1003.63
2017-02-13T09:44:14.222Z,1003.59
2017-02-13T09:45:14.251Z,1003.72
2017-02-13T09:46:14.272Z,1003.62
2017-02-13T09:47:14.304Z,1003.59
2017-02-13T09:48:14.328Z,1003.73
2017-02-13T09:49:14.354Z,1003.73
2017-02-13T09:50:14.381Z,1003.73
2017-02-13T09:51:14.417Z,1003.68
2017-02-13T09:52:14.434Z,1003.77
2017-02-13T09:53:14.460Z,1003.68
2017-02-13T09:54:14.481Z,1003.69
2017-02-13T09:55:14.515Z,1003.71
2017-02-13T09:56:14.539Z,1003.7
2017-02-13T09:57:14.567Z,1003.71
2017-02-13T09:58:14.591Z,1003.73
2017-02-13T09:59:14.612Z,1003.73
2017-02-13T10:00:14.646Z,1003.74
2017-02-13T10:01:14.670Z,1003.74
2017-02-13T10:02:14.696Z,1003.73
2017-02-13T10:03:14.724Z,1003.72
2017-02-13T10:04:14.748Z,1003.67
2017-02-13T10:05:14.777Z,1003.72
2017-02-13T10:06:14.800Z,1003.8
2017-02-13T10:07:14.829Z,1003.8
2017-02-13T10:08:14.855Z,1003.8
2017-02-13T10:09:14.884Z,1003.71
2017-02-13T10:10:14.908Z,1003.76
2017-02-13T10:11:14.934Z,1003.78
2017-02-13T10:12:14.958Z,1003.86
2017-02-13T10:13:14.986Z,1003.78
2017-02-13T10:14:15.010Z,1003.74
2017-02-13T10:15:15.036Z,1003.83
2017-02-13T10:16:15.065Z,1003.75
2017-02-13T10:17:15.090Z,1003.82
2017-02-13T10:18:15.119Z,1003.94
2017-02-13T10:19:15.146Z,1003.87
2017-02-13T10:20:15.171Z,1003.95
2017-02-13T10:21:15.193Z,1004
2017-02-13T10:22:15.221Z,1003.97
2017-02-13T10:23:15.251Z,1003.87
2017-02-13T10:24:15.275Z,1003.91
2017-02-13T10:25:15.303Z,1003.93
2017-02-13T10:26:15.324Z,1003.93
2017-02-13T10:27:15.354Z,1003.88
2017-02-13T10:28:15.383Z,1003.95
2017-02-13T10:29:15.407Z,1003.98
2017-02-13T10:30:15.687Z,1003.96
2017-02-13T10:31:15.460Z,1004.02
2017-02-13T10:32:15.484Z,1003.88
2017-02-13T10:33:15.513Z,1003.86
2017-02-13T10:34:15.537Z,1003.88
2017-02-13T10:35:15.819Z,1003.95
2017-02-13T10:36:15.591Z,1003.82
2017-02-13T10:37:15.621Z,1003.82
2017-02-13T10:38:15.645Z,1003.86
2017-02-13T10:39:15.671Z,1003.92
2017-02-13T10:40:15.949Z,1003.89
2017-02-13T10:41:15.723Z,1003.92
2017-02-13T10:42:15.744Z,1003.8
2017-02-13T10:43:15.774Z,1003.81
2017-02-13T10:44:15.801Z,1003.86
2017-02-13T10:45:16.083Z,1003.93
2017-02-13T10:46:15.854Z,1003.91
2017-02-13T10:47:15.888Z,1003.83
2017-02-13T10:48:15.908Z,1003.87
2017-02-13T10:49:15.940Z,1003.89
2017-02-13T10:50:16.209Z,1003.91
2017-02-13T10:51:15.987Z,1003.81
2017-02-13T10:52:16.015Z,1003.82
2017-02-13T10:53:16.040Z,1003.73
2017-02-13T10:54:16.071Z,1003.84
2017-02-13T10:55:16.093Z,1003.75
2017-02-13T10:56:16.119Z,1003.83
2017-02-13T10:57:16.154Z,1003.76
2017-02-13T10:58:16.172Z,1003.78
2017-02-13T10:59:16.197Z,1003.85
2017-02-13T11:00:16.226Z,1003.78
2017-02-13T11:01:16.250Z,1003.77
2017-02-13T11:02:16.277Z,1003.76
2017-02-13T11:03:16.299Z,1003.81
2017-02-13T11:04:16.332Z,1003.71
2017-02-13T11:05:16.357Z,1003.7
2017-02-13T11:06:16.389Z,1003.67
2017-02-13T11:07:16.410Z,1003.73
2017-02-13T11:08:16.437Z,1003.79
2017-02-13T11:09:16.463Z,1003.69
2017-02-13T11:10:16.492Z,1003.72
2017-02-13T11:11:16.516Z,1003.74
2017-02-13T11:12:16.540Z,1003.67
2017-02-13T11:13:16.566Z,1003.71
2017-02-13T11:14:16.594Z,1003.75
2017-02-13T11:15:16.628Z,1003.71
2017-02-13T11:16:16.649Z,1003.71
2017-02-13T11:17:16.677Z,1003.61
2017-02-13T11:18:16.703Z,1003.68
2017-02-13T11:19:16.727Z,1003.57
2017-02-13T11:20:16.755Z,1003.59
2017-02-13T11:21:16.780Z,1003.55
2017-02-13T11:22:16.808Z,1003.52
2017-02-13T11:23:16.832Z,1003.56
2017-02-13T11:24:16.858Z,1003.59
2017-02-13T11:25:16.888Z,1003.61
2017-02-13T11:26:17.162Z,1003.61
2017-02-13T11:27:16.941Z,1003.49
2017-02-13T11:28:16.971Z,1003.63
2017-02-13T11:29:16.994Z,1003.6
2017-02-13T11:30:17.019Z,1003.58
2017-02-13T11:31:17.301Z,1003.51
2017-02-13T11:32:17.071Z,1003.45
2017-02-13T11:33:17.101Z,1003.48
2017-02-13T11:34:17.126Z,1003.49
2017-02-13T11:35:17.155Z,1003.52
2017-02-13T11:36:17.432Z,1003.5
2017-02-13T11:37:17.207Z,1003.45
2017-02-13T11:38:17.232Z,1003.37
2017-02-13T11:39:17.262Z,1003.37
2017-02-13T11:40:17.284Z,1003.33
2017-02-13T11:41:17.315Z,1003.35
2017-02-13T11:42:17.339Z,1003.39
2017-02-13T11:43:17.368Z,1003.38
2017-02-13T11:44:17.392Z,1003.41
2017-02-13T11:45:17.419Z,1003.32
2017-02-13T11:46:17.447Z,1003.31
2017-02-13T11:47:17.476Z,1003.25
2017-02-13T11:48:17.504Z,1003.21
2017-02-13T11:49:17.529Z,1003.28
2017-02-13T11:50:17.557Z,1003.3
2017-02-13T11:51:17.588Z,1003.41
2017-02-13T11:52:17.611Z,1003.23
2017-02-13T11:53:17.641Z,1003.26
2017-02-13T11:54:17.666Z,1003.22
2017-02-13T11:55:17.693Z,1003.2
2017-02-13T11:56:17.725Z,1003.22
2017-02-13T11:57:17.746Z,1003.24
2017-02-13T11:58:17.771Z,1003.18
2017-02-13T11:59:17.802Z,1003.23
2017-02-13T12:00:17.829Z,1003.12
2017-02-13T12:01:17.853Z,1003.16
2017-02-13T12:02:18.134Z,1003.13
2017-02-13T12:03:17.910Z,1003.18
2017-02-13T12:04:17.935Z,1003.09
2017-02-13T12:05:17.963Z,1003.12
2017-02-13T12:06:17.989Z,1003.15
2017-02-13T12:07:18.269Z,1003.14
2017-02-13T12:08:18.039Z,1003.12
2017-02-13T12:09:18.071Z,1003.13